createdAt,value
2018-11-10T00:00:21.911Z,0.00
2018-11-10T00:01:21.952Z,0.00
2018-11-10T00:02:21.975Z,0.00
2018-11-10T00:03:21.897Z,0.00
2018-11-10T00:04:22.078Z,0.00
2018-11-10T00:05:21.852Z,0.00
2018-11-10T00:06:21.914Z,0.00
2018-11-10T00:07:21.884Z,0.00
2018-11-10T00:08:21.916Z,0.00
2018-11-10T00:09:21.814Z,0.00
2018-11-10T00:10:21.805Z,0.00
2018-11-10T00:11:21.860Z,0.00
2018-11-10T00:12:21.829Z,0.00
2018-11-10T00:13:21.824Z,0.00
2018-11-10T00:14:21.746Z,0.00
2018-11-10T00:15:21.795Z,0.00
2018-11-10T00:16:21.801Z,0.00
2018-11-10T00:17:21.710Z,0.00
2018-11-10T00:18:21.712Z,0.00
2018-11-10T00:19:21.713Z,0.00
2018-11-10T00:20:21.722Z,0.00
2018-11-10T00:21:21.731Z,0.00
2018-11-10T00:22:21.676Z,0.00
2018-11-10T00:23:21.709Z,0.00
2018-11-10T00:24:21.665Z,0.00
2018-11-10T00:25:21.676Z,0.00
2018-11-10T00:26:23.458Z,0.00
2018-11-10T00:27:21.707Z,0.00
2018-11-10T00:28:22.323Z,0.00
2018-11-10T00:29:21.621Z,0.00
2018-11-10T00:30:21.662Z,0.00
2018-11-10T00:31:21.589Z,0.00
2018-11-10T00:32:21.635Z,0.00
2018-11-10T00:33:21.943Z,0.00
2018-11-10T00:34:21.543Z,0.00
2018-11-10T00:35:21.576Z,0.00
2018-11-10T00:36:21.530Z,0.00
2018-11-10T00:37:21.590Z,0.00
2018-11-10T00:38:21.572Z,0.00
2018-11-10T00:39:21.911Z,0.00
2018-11-10T00:40:21.487Z,0.00
2018-11-10T00:41:21.467Z,0.00
2018-11-10T00:42:21.526Z,0.00
2018-11-10T00:43:21.522Z,0.00
2018-11-10T00:44:21.522Z,0.00
2018-11-10T00:45:21.444Z,0.00
2018-11-10T00:46:21.468Z,0.00
2018-11-10T00:47:21.459Z,0.00
2018-11-10T00:48:21.405Z,0.00
2018-11-10T00:49:21.468Z,0.00
2018-11-10T00:50:21.400Z,0.00
2018-11-10T00:51:21.371Z,0.00
2018-11-10T00:52:21.346Z,0.00
2018-11-10T00:53:21.360Z,0.00
2018-11-10T00:54:21.424Z,0.00
2018-11-10T00:55:21.348Z,0.00
2018-11-10T00:56:21.317Z,0.00
2018-11-10T00:57:21.312Z,0.00
2018-11-10T00:58:21.337Z,0.00
2018-11-10T00:59:21.329Z,0.00
2018-11-10T01:00:21.276Z,0.00
2018-11-10T01:01:21.249Z,0.00
2018-11-10T01:02:21.291Z,0.00
2018-11-10T01:03:21.244Z,0.00
2018-11-10T01:04:21.272Z,0.00
2018-11-10T01:05:21.217Z,0.00
2018-11-10T01:06:21.240Z,0.00
2018-11-10T01:07:21.221Z,0.00
2018-11-10T01:08:21.198Z,0.00
2018-11-10T01:09:21.222Z,0.00
2018-11-10T01:10:21.165Z,0.00
2018-11-10T01:11:21.194Z,0.00
2018-11-10T01:12:21.121Z,0.00
2018-11-10T01:13:21.149Z,0.00
2018-11-10T01:14:21.174Z,0.00
2018-11-10T01:15:21.126Z,0.00
2018-11-10T01:16:21.128Z,0.00
2018-11-10T01:17:21.099Z,0.00
2018-11-10T01:18:21.060Z,0.00
2018-11-10T01:19:21.121Z,0.00
2018-11-10T01:20:21.394Z,0.00
2018-11-10T01:21:21.057Z,0.00
2018-11-10T01:22:21.052Z,0.00
2018-11-10T01:23:21.026Z,0.00
2018-11-10T01:24:21.029Z,0.00
2018-11-10T01:25:21.058Z,0.00
2018-11-10T01:26:20.987Z,0.00
2018-11-10T01:27:20.999Z,0.00
2018-11-10T01:28:20.971Z,0.00
2018-11-10T01:29:20.990Z,0.00
2018-11-10T01:30:20.994Z,0.00
2018-11-10T01:31:20.937Z,0.00
2018-11-10T01:32:20.947Z,0.00
2018-11-10T01:33:20.919Z,0.00
2018-11-10T01:34:20.882Z,0.00
2018-11-10T01:35:20.961Z,0.00
2018-11-10T01:36:20.917Z,0.00
2018-11-10T01:37:20.876Z,0.00
2018-11-10T01:38:20.844Z,0.00
2018-11-10T01:39:20.853Z,0.00
2018-11-10T01:40:20.924Z,0.00
2018-11-10T01:41:20.835Z,0.00
2018-11-10T01:42:20.808Z,0.00
2018-11-10T01:43:20.809Z,0.00
2018-11-10T01:44:20.803Z,0.00
2018-11-10T01:45:20.877Z,0.00
2018-11-10T01:46:20.858Z,0.00
2018-11-10T01:47:20.758Z,0.00
2018-11-10T01:48:20.761Z,0.00
2018-11-10T01:49:20.746Z,0.00
2018-11-10T01:50:20.768Z,0.00
2018-11-10T01:51:20.808Z,0.00
2018-11-10T01:52:20.895Z,0.00
2018-11-10T01:53:20.697Z,0.00
2018-11-10T01:54:20.684Z,0.00
2018-11-10T01:55:20.655Z,0.00
2018-11-10T01:56:20.694Z,0.00
2018-11-10T01:57:20.704Z,0.00
2018-11-10T01:58:20.647Z,0.00
2018-11-10T01:59:20.625Z,0.00
2018-11-10T02:00:20.674Z,0.00
2018-11-10T02:01:20.592Z,0.00
2018-11-10T02:02:20.693Z,0.00
2018-11-10T02:03:20.612Z,0.00
2018-11-10T02:04:20.581Z,0.00
2018-11-10T02:05:20.550Z,0.00
2018-11-10T02:06:20.564Z,0.00
2018-11-10T02:07:20.647Z,0.00
2018-11-10T02:08:20.536Z,0.00
2018-11-10T02:09:20.540Z,0.00
2018-11-10T02:10:20.515Z,0.00
2018-11-10T02:11:20.509Z,0.00
2018-11-10T02:12:20.576Z,0.00
2018-11-10T02:13:20.887Z,0.00
2018-11-10T02:14:20.520Z,0.00
2018-11-10T02:15:20.461Z,0.00
2018-11-10T02:16:20.453Z,0.00
2018-11-10T02:17:20.429Z,0.00
2018-11-10T02:18:20.478Z,0.00
2018-11-10T02:19:20.429Z,0.00
2018-11-10T02:20:20.414Z,0.00
2018-11-10T02:21:20.384Z,0.00
2018-11-10T02:22:20.370Z,0.00
2018-11-10T02:23:20.415Z,0.00
2018-11-10T02:24:20.377Z,0.00
2018-11-10T02:25:20.362Z,0.00
2018-11-10T02:26:20.321Z,0.00
2018-11-10T02:27:20.372Z,0.00
2018-11-10T02:28:20.356Z,0.00
2018-11-10T02:29:20.303Z,0.00
2018-11-10T02:30:20.324Z,0.00
2018-11-10T02:31:20.294Z,0.00
2018-11-10T02:32:20.353Z,0.00
2018-11-10T02:33:20.260Z,0.00
2018-11-10T02:34:20.253Z,0.00
2018-11-10T02:35:20.256Z,0.00
2018-11-10T02:36:20.224Z,0.00
2018-11-10T02:37:20.277Z,0.00
2018-11-10T02:38:20.190Z,0.00
2018-11-10T02:39:20.200Z,0.00
2018-11-10T02:40:20.206Z,0.00
2018-11-10T02:41:20.173Z,0.00
2018-11-10T02:42:20.242Z,0.00
2018-11-10T02:43:20.167Z,0.00
2018-11-10T02:44:20.173Z,0.00
2018-11-10T02:45:20.124Z,0.00
2018-11-10T02:46:20.126Z,0.00
2018-11-10T02:47:20.136Z,0.00
2018-11-10T02:48:20.145Z,0.00
2018-11-10T02:49:20.342Z,0.00
2018-11-10T02:50:20.086Z,0.00
2018-11-10T02:51:20.063Z,0.00
2018-11-10T02:52:20.055Z,0.00
2018-11-10T02:53:20.067Z,0.00
2018-11-10T02:54:20.011Z,0.00
2018-11-10T02:55:20.072Z,0.00
2018-11-10T02:56:20.008Z,0.00
2018-11-10T02:57:19.999Z,0.00
2018-11-10T02:58:20.076Z,0.00
2018-11-10T02:59:19.977Z,0.00
2018-11-10T03:00:19.962Z,0.00
2018-11-10T03:01:19.963Z,0.00
2018-11-10T03:02:19.989Z,0.00
2018-11-10T03:03:19.994Z,0.00
2018-11-10T03:04:19.921Z,0.00
2018-11-10T03:05:19.917Z,0.00
2018-11-10T03:06:19.921Z,0.00
2018-11-10T03:07:19.909Z,0.00
2018-11-10T03:08:19.971Z,0.00
2018-11-10T03:09:19.875Z,0.00
2018-11-10T03:10:19.870Z,0.00
2018-11-10T03:11:19.849Z,0.00
2018-11-10T03:12:19.881Z,0.00
2018-11-10T03:13:19.868Z,0.00
2018-11-10T03:14:19.835Z,0.00
2018-11-10T03:15:19.817Z,0.00
2018-11-10T03:16:19.816Z,0.00
2018-11-10T03:17:19.862Z,0.00
2018-11-10T03:18:19.781Z,0.00
2018-11-10T03:19:19.773Z,0.00
2018-11-10T03:20:19.777Z,0.00
2018-11-10T03:21:19.735Z,0.00
2018-11-10T03:22:19.785Z,0.00
2018-11-10T03:23:19.714Z,0.00
2018-11-10T03:24:19.748Z,0.00
2018-11-10T03:25:19.732Z,0.00
2018-11-10T03:26:19.676Z,0.00
2018-11-10T03:27:19.716Z,0.00
2018-11-10T03:28:19.690Z,0.00
2018-11-10T03:29:19.656Z,0.00
2018-11-10T03:30:19.711Z,0.00
2018-11-10T03:31:19.676Z,0.00
2018-11-10T03:32:19.612Z,0.00
2018-11-10T03:33:19.619Z,0.00
2018-11-10T03:34:19.578Z,0.00
2018-11-10T03:35:19.634Z,0.00
2018-11-10T03:36:19.610Z,0.00
2018-11-10T03:37:19.573Z,0.00
2018-11-10T03:38:19.594Z,0.00
2018-11-10T03:39:19.556Z,0.00
2018-11-10T03:40:19.568Z,0.00
2018-11-10T03:41:19.550Z,0.00
2018-11-10T03:42:19.563Z,0.00
2018-11-10T03:43:19.590Z,0.00
2018-11-10T03:44:19.494Z,0.00
2018-11-10T03:45:19.489Z,0.00
2018-11-10T03:46:19.473Z,0.00
2018-11-10T03:47:19.476Z,0.00
2018-11-10T03:48:19.512Z,0.00
2018-11-10T03:49:19.442Z,0.00
2018-11-10T03:50:19.429Z,0.00
2018-11-10T03:51:19.457Z,0.00
2018-11-10T03:52:19.461Z,0.00
2018-11-10T03:53:19.388Z,0.00
2018-11-10T03:54:19.385Z,0.00
2018-11-10T03:55:19.446Z,0.00
2018-11-10T03:56:19.351Z,0.00
2018-11-10T03:57:19.400Z,0.00
2018-11-10T03:58:19.344Z,0.00
2018-11-10T03:59:19.343Z,0.00
2018-11-10T04:00:19.354Z,0.00
2018-11-10T04:01:19.306Z,0.00
2018-11-10T04:02:19.343Z,0.00
2018-11-10T04:03:19.276Z,0.00
2018-11-10T04:04:19.345Z,0.00
2018-11-10T04:05:19.264Z,0.00
2018-11-10T04:06:19.309Z,0.00
2018-11-10T04:07:19.246Z,0.00
2018-11-10T04:08:19.234Z,0.00
2018-11-10T04:09:19.295Z,0.00
2018-11-10T04:10:19.195Z,0.00
2018-11-10T04:11:19.203Z,0.00
2018-11-10T04:12:19.226Z,0.00
2018-11-10T04:13:19.185Z,0.00
2018-11-10T04:14:19.189Z,0.00
2018-11-10T04:15:19.189Z,0.00
2018-11-10T04:16:19.148Z,0.00
2018-11-10T04:17:19.181Z,0.00
2018-11-10T04:18:19.140Z,0.00
2018-11-10T04:19:19.120Z,0.00
2018-11-10T04:20:19.120Z,0.00
2018-11-10T04:21:19.116Z,0.00
2018-11-10T04:22:19.124Z,0.00
2018-11-10T04:23:19.078Z,0.00
2018-11-10T04:24:19.055Z,0.00
2018-11-10T04:25:19.073Z,0.00
2018-11-10T04:26:19.093Z,0.00
2018-11-10T04:27:19.110Z,0.00
2018-11-10T04:28:19.026Z,0.00
2018-11-10T04:29:18.994Z,0.00
2018-11-10T04:30:19.026Z,0.00
2018-11-10T04:31:20.016Z,0.00
2018-11-10T04:32:19.112Z,0.00
2018-11-10T04:33:18.965Z,0.00
2018-11-10T04:34:18.968Z,0.00
2018-11-10T04:35:18.952Z,0.00
2018-11-10T04:36:18.916Z,0.00
2018-11-10T04:37:18.974Z,0.00
2018-11-10T04:38:18.897Z,0.00
2018-11-10T04:39:18.891Z,0.00
2018-11-10T04:40:19.029Z,0.00
2018-11-10T04:41:18.929Z,0.00
2018-11-10T04:42:18.912Z,0.00
2018-11-10T04:43:18.901Z,0.00
2018-11-10T04:44:18.883Z,0.00
2018-11-10T04:45:18.834Z,0.00
2018-11-10T04:46:18.818Z,0.00
2018-11-10T04:47:18.826Z,0.00
2018-11-10T04:48:18.853Z,0.00
2018-11-10T04:49:18.836Z,0.00
2018-11-10T04:50:18.790Z,0.00
2018-11-10T04:51:19.718Z,0.00
2018-11-10T04:52:18.747Z,0.00
2018-11-10T04:53:18.796Z,0.00
2018-11-10T04:54:18.826Z,0.00
2018-11-10T04:55:18.706Z,0.00
2018-11-10T04:56:18.741Z,0.00
2018-11-10T04:57:18.704Z,0.00
2018-11-10T04:58:18.689Z,0.00
2018-11-10T04:59:18.772Z,0.00
2018-11-10T05:00:18.679Z,0.00
2018-11-10T05:01:18.724Z,0.00
2018-11-10T05:02:18.658Z,0.00
2018-11-10T05:03:18.653Z,0.00
2018-11-10T05:04:18.724Z,0.00
2018-11-10T05:05:18.616Z,0.00
2018-11-10T05:06:18.625Z,0.00
2018-11-10T05:07:18.578Z,0.00
2018-11-10T05:08:18.589Z,0.00
2018-11-10T05:09:18.678Z,0.00
2018-11-10T05:10:18.793Z,0.00
2018-11-10T05:11:18.554Z,0.00
2018-11-10T05:12:18.557Z,0.00
2018-11-10T05:13:18.520Z,0.00
2018-11-10T05:14:30.334Z,0.00
2018-11-10T05:15:19.568Z,0.00
2018-11-10T05:16:18.481Z,0.00
2018-11-10T05:17:18.492Z,0.00
2018-11-10T05:18:18.478Z,0.00
2018-11-10T05:19:18.454Z,0.00
2018-11-10T05:20:18.537Z,0.00
2018-11-10T05:21:18.484Z,0.00
2018-11-10T05:22:18.434Z,0.00
2018-11-10T05:23:18.411Z,0.00
2018-11-10T05:24:18.417Z,0.00
2018-11-10T05:25:18.472Z,0.00
2018-11-10T05:26:18.369Z,0.00
2018-11-10T05:27:18.409Z,0.00
2018-11-10T05:28:18.362Z,0.00
2018-11-10T05:29:18.355Z,0.00
2018-11-10T05:30:18.433Z,0.00
2018-11-10T05:31:18.501Z,0.00
2018-11-10T05:32:19.212Z,0.00
2018-11-10T05:33:18.327Z,0.00
2018-11-10T05:34:18.335Z,0.00
2018-11-10T05:35:18.389Z,0.00
2018-11-10T05:36:18.276Z,0.00
2018-11-10T05:37:18.274Z,0.00
2018-11-10T05:38:18.264Z,0.00
2018-11-10T05:39:18.243Z,0.00
2018-11-10T05:40:18.348Z,0.00
2018-11-10T05:41:18.232Z,0.00
2018-11-10T05:42:18.208Z,0.00
2018-11-10T05:43:18.225Z,0.00
2018-11-10T05:44:18.199Z,0.00
2018-11-10T05:45:18.290Z,0.00
2018-11-10T05:46:18.189Z,0.00
2018-11-10T05:47:18.161Z,0.00
2018-11-10T05:48:18.207Z,0.00
2018-11-10T05:49:18.144Z,0.00
2018-11-10T05:50:18.199Z,0.00
2018-11-10T05:51:18.142Z,0.00
2018-11-10T05:52:18.140Z,0.00
2018-11-10T05:53:18.162Z,0.00
2018-11-10T05:54:19.088Z,0.00
2018-11-10T05:55:18.115Z,0.00
2018-11-10T05:56:18.078Z,0.00
2018-11-10T05:57:18.295Z,0.00
2018-11-10T05:58:18.049Z,0.00
2018-11-10T05:59:18.051Z,0.00
2018-11-10T06:00:18.045Z,0.00
2018-11-10T06:01:18.019Z,0.00
2018-11-10T06:02:18.065Z,0.00
2018-11-10T06:03:18.076Z,0.00
2018-11-10T06:04:17.998Z,0.00
2018-11-10T06:05:17.962Z,0.00
2018-11-10T06:06:17.985Z,5.62
2018-11-10T06:07:18.026Z,5.62
2018-11-10T06:08:17.933Z,5.62
2018-11-10T06:09:17.969Z,5.62
2018-11-10T06:10:18.103Z,5.62
2018-11-10T06:11:17.896Z,5.62
2018-11-10T06:12:18.012Z,5.62
2018-11-10T06:13:17.905Z,11.25
2018-11-10T06:14:17.861Z,11.25
2018-11-10T06:15:17.853Z,11.25
2018-11-10T06:16:17.873Z,11.25
2018-11-10T06:17:18.946Z,11.25
2018-11-10T06:18:17.908Z,16.88
2018-11-10T06:19:17.831Z,16.88
2018-11-10T06:20:17.807Z,16.88
2018-11-10T06:21:17.801Z,16.88
2018-11-10T06:22:17.847Z,16.88
2018-11-10T06:23:17.804Z,22.50
2018-11-10T06:24:17.801Z,22.50
2018-11-10T06:25:17.757Z,22.50
2018-11-10T06:26:17.729Z,28.12
2018-11-10T06:27:17.815Z,28.12
2018-11-10T06:28:17.721Z,33.75
2018-11-10T06:29:17.714Z,33.75
2018-11-10T06:30:17.694Z,33.75
2018-11-10T06:31:17.728Z,39.38
2018-11-10T06:32:17.790Z,39.38
2018-11-10T06:33:17.669Z,45.00
2018-11-10T06:34:17.678Z,45.00
2018-11-10T06:35:17.647Z,50.62
2018-11-10T06:36:17.655Z,56.25
2018-11-10T06:37:17.743Z,56.25
2018-11-10T06:38:17.611Z,61.88
2018-11-10T06:39:17.613Z,67.50
2018-11-10T06:40:17.600Z,73.12
2018-11-10T06:41:17.686Z,73.12
2018-11-10T06:42:17.677Z,78.75
2018-11-10T06:43:17.596Z,78.75
2018-11-10T06:44:17.571Z,84.38
2018-11-10T06:45:17.580Z,90.00
2018-11-10T06:46:17.611Z,90.00
2018-11-10T06:47:17.511Z,90.00
2018-11-10T06:48:17.513Z,95.62
2018-11-10T06:49:17.519Z,95.62
2018-11-10T06:50:17.512Z,101.25
2018-11-10T06:51:17.508Z,106.88
2018-11-10T06:52:17.472Z,112.50
2018-11-10T06:53:17.447Z,112.50
2018-11-10T06:54:17.432Z,112.50
2018-11-10T06:55:17.468Z,118.12
2018-11-10T06:56:17.606Z,118.12
2018-11-10T06:57:17.423Z,129.38
2018-11-10T06:58:18.197Z,129.38
2018-11-10T06:59:17.386Z,135.00
2018-11-10T07:00:17.365Z,146.25
2018-11-10T07:01:17.511Z,163.12
2018-11-10T07:02:17.832Z,168.75
2018-11-10T07:03:17.416Z,163.12
2018-11-10T07:04:17.329Z,157.50
2018-11-10T07:05:17.465Z,168.75
2018-11-10T07:06:17.302Z,174.38
2018-11-10T07:07:17.409Z,180.00
2018-11-10T07:08:17.290Z,185.62
2018-11-10T07:09:17.369Z,191.25
2018-11-10T07:10:17.286Z,185.62
2018-11-10T07:11:17.261Z,185.62
2018-11-10T07:12:17.387Z,196.88
2018-11-10T07:13:17.246Z,208.12
2018-11-10T07:14:17.331Z,219.38
2018-11-10T07:15:17.237Z,219.38
2018-11-10T07:16:17.203Z,208.12
2018-11-10T07:17:17.310Z,208.12
2018-11-10T07:18:17.350Z,208.12
2018-11-10T07:19:17.174Z,208.12
2018-11-10T07:20:17.203Z,219.38
2018-11-10T07:21:18.165Z,225.00
2018-11-10T07:22:17.151Z,225.00
2018-11-10T07:23:17.166Z,225.00
2018-11-10T07:24:17.106Z,219.38
2018-11-10T07:25:17.155Z,219.38
2018-11-10T07:26:17.106Z,213.75
2018-11-10T07:27:17.168Z,208.12
2018-11-10T07:28:17.080Z,208.12
2018-11-10T07:29:17.091Z,213.75
2018-11-10T07:30:17.229Z,219.38
2018-11-10T07:31:17.132Z,225.00
2018-11-10T07:32:17.051Z,230.62
2018-11-10T07:33:17.020Z,219.38
2018-11-10T07:34:17.079Z,236.25
2018-11-10T07:35:16.991Z,253.12
2018-11-10T07:36:17.056Z,270.00
2018-11-10T07:37:17.331Z,275.62
2018-11-10T07:38:16.978Z,281.25
2018-11-10T07:39:16.979Z,281.25
2018-11-10T07:40:17.980Z,281.25
2018-11-10T07:41:16.918Z,270.00
2018-11-10T07:42:16.999Z,275.62
2018-11-10T07:43:16.907Z,275.62
2018-11-10T07:44:16.942Z,275.62
2018-11-10T07:45:16.897Z,275.62
2018-11-10T07:46:16.884Z,275.62
2018-11-10T07:47:16.934Z,258.75
2018-11-10T07:48:16.867Z,253.12
2018-11-10T07:49:16.926Z,258.75
2018-11-10T07:50:16.838Z,264.38
2018-11-10T07:51:16.854Z,264.38
2018-11-10T07:52:16.870Z,258.75
2018-11-10T07:53:16.934Z,258.75
2018-11-10T07:54:16.886Z,247.50
2018-11-10T07:55:16.776Z,236.25
2018-11-10T07:56:16.803Z,247.50
2018-11-10T07:57:16.853Z,241.88
2018-11-10T07:58:16.813Z,241.88
2018-11-10T07:59:16.776Z,247.50
2018-11-10T08:00:16.821Z,253.12
2018-11-10T08:01:16.728Z,247.50
2018-11-10T08:02:16.780Z,264.38
2018-11-10T08:03:16.676Z,270.00
2018-11-10T08:04:24.990Z,275.62
2018-11-10T08:05:16.805Z,270.00
2018-11-10T08:06:16.659Z,264.38
2018-11-10T08:07:16.763Z,258.75
2018-11-10T08:08:16.671Z,275.62
2018-11-10T08:09:16.636Z,264.38
2018-11-10T08:10:16.657Z,270.00
2018-11-10T08:11:16.609Z,286.88
2018-11-10T08:12:16.614Z,275.62
2018-11-10T08:13:16.604Z,281.25
2018-11-10T08:14:16.572Z,275.62
2018-11-10T08:15:16.607Z,303.75
2018-11-10T08:16:16.541Z,286.88
2018-11-10T08:17:16.541Z,309.38
2018-11-10T08:18:16.558Z,315.00
2018-11-10T08:19:16.505Z,303.75
2018-11-10T08:20:16.539Z,309.38
2018-11-10T08:21:16.485Z,309.38
2018-11-10T08:22:16.496Z,303.75
2018-11-10T08:23:16.482Z,281.25
2018-11-10T08:24:16.464Z,326.25
2018-11-10T08:25:16.504Z,388.12
2018-11-10T08:26:16.427Z,405.00
2018-11-10T08:27:16.426Z,337.50
2018-11-10T08:28:16.412Z,326.25
2018-11-10T08:29:16.410Z,343.12
2018-11-10T08:30:16.419Z,393.75
2018-11-10T08:31:16.556Z,382.50
2018-11-10T08:32:16.371Z,438.75
2018-11-10T08:33:16.366Z,455.62
2018-11-10T08:34:16.347Z,337.50
2018-11-10T08:35:16.333Z,371.25
2018-11-10T08:36:16.369Z,1068.75
2018-11-10T08:37:16.334Z,331.88
2018-11-10T08:38:16.321Z,315.00
2018-11-10T08:39:16.349Z,393.75
2018-11-10T08:40:16.287Z,607.50
2018-11-10T08:41:16.315Z,421.88
2018-11-10T08:42:18.239Z,354.38
2018-11-10T08:43:16.269Z,1125.00
2018-11-10T08:44:16.274Z,545.62
2018-11-10T08:45:16.262Z,1181.25
2018-11-10T08:46:16.285Z,1130.62
2018-11-10T08:47:16.234Z,1395.00
2018-11-10T08:48:16.232Z,1395.00
2018-11-10T08:49:16.231Z,1305.00
2018-11-10T08:50:16.178Z,399.38
2018-11-10T08:51:16.406Z,973.12
2018-11-10T08:52:16.165Z,2182.50
2018-11-10T08:53:16.177Z,2193.75
2018-11-10T08:54:16.146Z,2109.38
2018-11-10T08:55:16.113Z,1310.62
2018-11-10T08:56:16.115Z,489.38
2018-11-10T08:57:16.127Z,1726.88
2018-11-10T08:58:16.198Z,410.62
2018-11-10T08:59:16.183Z,703.12
2018-11-10T09:00:16.099Z,607.50
2018-11-10T09:01:16.080Z,1856.25
2018-11-10T09:02:16.047Z,1029.38
2018-11-10T09:03:16.106Z,2295.00
2018-11-10T09:04:16.032Z,2587.50
2018-11-10T09:05:16.028Z,534.38
2018-11-10T09:06:16.036Z,1636.88
2018-11-10T09:07:15.992Z,1985.62
2018-11-10T09:08:15.973Z,922.50
2018-11-10T09:09:15.978Z,382.50
2018-11-10T09:10:15.971Z,455.62
2018-11-10T09:11:15.945Z,2103.75
2018-11-10T09:12:15.957Z,956.25
2018-11-10T09:13:15.961Z,410.62
2018-11-10T09:14:15.950Z,455.62
2018-11-10T09:15:16.077Z,1636.88
2018-11-10T09:16:15.996Z,2452.50
2018-11-10T09:17:15.873Z,613.12
2018-11-10T09:18:15.904Z,1861.88
2018-11-10T09:19:15.870Z,2340.00
2018-11-10T09:20:15.852Z,2356.88
2018-11-10T09:21:15.944Z,551.25
2018-11-10T09:22:15.864Z,573.75
2018-11-10T09:23:15.847Z,1119.38
2018-11-10T09:24:15.808Z,2542.50
2018-11-10T09:25:15.851Z,2475.00
2018-11-10T09:26:15.788Z,905.62
2018-11-10T09:27:15.779Z,686.25
2018-11-10T09:28:15.768Z,967.50
2018-11-10T09:29:15.749Z,1209.38
2018-11-10T09:30:15.770Z,759.38
2018-11-10T09:31:15.754Z,781.88
2018-11-10T09:32:15.715Z,1220.62
2018-11-10T09:33:15.709Z,354.38
2018-11-10T09:34:15.711Z,725.62
2018-11-10T09:35:15.714Z,1001.25
2018-11-10T09:36:15.697Z,500.62
2018-11-10T09:37:15.666Z,461.25
2018-11-10T09:38:15.652Z,354.38
2018-11-10T09:39:18.271Z,371.25
2018-11-10T09:40:15.699Z,708.75
2018-11-10T09:41:15.619Z,2486.25
2018-11-10T09:42:15.690Z,2362.50
2018-11-10T09:43:15.782Z,950.62
2018-11-10T09:44:15.633Z,489.38
2018-11-10T09:45:15.614Z,2458.12
2018-11-10T09:46:15.613Z,427.50
2018-11-10T09:47:15.576Z,433.12
2018-11-10T09:48:15.536Z,2722.50
2018-11-10T09:49:15.520Z,500.62
2018-11-10T09:50:15.577Z,388.12
2018-11-10T09:51:15.554Z,382.50
2018-11-10T09:52:15.480Z,388.12
2018-11-10T09:53:15.538Z,399.38
2018-11-10T09:54:15.473Z,410.62
2018-11-10T09:55:15.496Z,562.50
2018-11-10T09:56:15.462Z,1490.62
2018-11-10T09:57:15.431Z,2666.25
2018-11-10T09:58:15.418Z,489.38
2018-11-10T09:59:15.429Z,483.75
2018-11-10T10:00:15.457Z,1850.62
2018-11-10T10:01:15.516Z,2655.00
2018-11-10T10:02:15.868Z,1001.25
2018-11-10T10:03:15.365Z,714.38
2018-11-10T10:04:15.379Z,506.25
2018-11-10T10:05:16.329Z,483.75
2018-11-10T10:06:15.367Z,528.75
2018-11-10T10:07:16.232Z,450.00
2018-11-10T10:08:15.333Z,421.88
2018-11-10T10:09:15.348Z,466.88
2018-11-10T10:10:15.333Z,478.12
2018-11-10T10:11:15.289Z,461.25
2018-11-10T10:12:15.316Z,568.12
2018-11-10T10:13:15.266Z,2812.50
2018-11-10T10:14:15.270Z,517.50
2018-11-10T10:15:15.255Z,551.25
2018-11-10T10:16:15.376Z,511.88
2018-11-10T10:17:15.277Z,641.25
2018-11-10T10:18:15.475Z,776.25
2018-11-10T10:19:15.210Z,500.62
2018-11-10T10:20:15.199Z,478.12
2018-11-10T10:21:15.205Z,714.38
2018-11-10T10:22:15.188Z,489.38
2018-11-10T10:23:15.240Z,455.62
2018-11-10T10:24:15.717Z,483.75
2018-11-10T10:25:15.139Z,472.50
2018-11-10T10:26:15.121Z,500.62
2018-11-10T10:27:15.123Z,461.25
2018-11-10T10:28:15.171Z,438.75
2018-11-10T10:29:15.089Z,421.88
2018-11-10T10:30:15.086Z,517.50
2018-11-10T10:31:15.082Z,500.62
2018-11-10T10:32:17.264Z,455.62
2018-11-10T10:33:15.756Z,500.62
2018-11-10T10:34:15.273Z,573.75
2018-11-10T10:35:15.262Z,568.12
2018-11-10T10:36:15.042Z,568.12
2018-11-10T10:37:15.043Z,630.00
2018-11-10T10:38:15.100Z,663.75
2018-11-10T10:39:15.007Z,635.62
2018-11-10T10:40:14.953Z,590.62
2018-11-10T10:41:14.954Z,523.12
2018-11-10T10:42:14.967Z,590.62
2018-11-10T10:43:15.730Z,618.75
2018-11-10T10:44:14.946Z,562.50
2018-11-10T10:45:14.922Z,573.75
2018-11-10T10:46:14.919Z,573.75
2018-11-10T10:47:14.924Z,618.75
2018-11-10T10:48:14.895Z,641.25
2018-11-10T10:49:14.995Z,669.38
2018-11-10T10:50:14.875Z,652.50
2018-11-10T10:51:14.855Z,624.38
2018-11-10T10:52:15.721Z,669.38
2018-11-10T10:53:14.866Z,680.62
2018-11-10T10:54:14.845Z,720.00
2018-11-10T10:55:14.839Z,714.38
2018-11-10T10:56:14.894Z,720.00
2018-11-10T10:57:14.892Z,731.25
2018-11-10T10:58:14.766Z,652.50
2018-11-10T10:59:14.793Z,618.75
2018-11-10T11:00:14.766Z,630.00
2018-11-10T11:01:14.784Z,703.12
2018-11-10T11:02:14.742Z,663.75
2018-11-10T11:03:14.800Z,652.50
2018-11-10T11:04:14.755Z,630.00
2018-11-10T11:05:14.722Z,579.38
2018-11-10T11:06:14.726Z,556.88
2018-11-10T11:07:14.714Z,590.62
2018-11-10T11:08:14.655Z,691.88
2018-11-10T11:09:14.665Z,663.75
2018-11-10T11:10:14.660Z,624.38
2018-11-10T11:11:14.687Z,568.12
2018-11-10T11:12:14.646Z,601.88
2018-11-10T11:13:14.665Z,585.00
2018-11-10T11:14:37.846Z,618.75
2018-11-10T11:15:15.690Z,658.12
2018-11-10T11:16:14.634Z,624.38
2018-11-10T11:17:14.592Z,675.00
2018-11-10T11:18:14.557Z,781.88
2018-11-10T11:19:14.539Z,821.25
2018-11-10T11:20:14.540Z,776.25
2018-11-10T11:21:14.578Z,736.88
2018-11-10T11:22:14.565Z,641.25
2018-11-10T11:23:14.508Z,613.12
2018-11-10T11:24:14.511Z,703.12
2018-11-10T11:25:15.189Z,804.38
2018-11-10T11:26:14.473Z,697.50
2018-11-10T11:27:14.502Z,686.25
2018-11-10T11:28:14.461Z,646.88
2018-11-10T11:29:14.535Z,781.88
2018-11-10T11:30:14.468Z,815.62
2018-11-10T11:31:14.497Z,1141.88
2018-11-10T11:32:14.457Z,770.62
2018-11-10T11:33:14.737Z,641.25
2018-11-10T11:34:14.412Z,1670.62
2018-11-10T11:35:14.448Z,2565.00
2018-11-10T11:36:14.350Z,1884.38
2018-11-10T11:37:14.386Z,675.00
2018-11-10T11:38:14.330Z,652.50
2018-11-10T11:39:14.352Z,821.25
2018-11-10T11:40:14.336Z,843.75
2018-11-10T11:41:14.424Z,2570.62
2018-11-10T11:42:14.314Z,1085.62
2018-11-10T11:43:14.283Z,928.12
2018-11-10T11:44:14.264Z,945.00
2018-11-10T11:45:14.276Z,1068.75
2018-11-10T11:46:14.257Z,973.12
2018-11-10T11:47:14.327Z,1231.88
2018-11-10T11:48:14.277Z,894.38
2018-11-10T11:49:14.895Z,1681.88
2018-11-10T11:50:14.225Z,2255.62
2018-11-10T11:51:14.240Z,624.38
2018-11-10T11:52:14.181Z,601.88
2018-11-10T11:53:14.249Z,613.12
2018-11-10T11:54:14.204Z,635.62
2018-11-10T11:55:14.163Z,1766.25
2018-11-10T11:56:14.153Z,736.88
2018-11-10T11:57:14.129Z,596.25
2018-11-10T11:58:14.284Z,663.75
2018-11-10T11:59:14.137Z,832.50
2018-11-10T12:00:14.088Z,2491.88
2018-11-10T12:01:14.114Z,843.75
2018-11-10T12:02:14.202Z,2728.12
2018-11-10T12:03:14.108Z,2806.88
2018-11-10T12:04:14.737Z,1524.38
2018-11-10T12:05:14.045Z,2311.88
2018-11-10T12:06:14.713Z,759.38
2018-11-10T12:07:14.109Z,2986.88
2018-11-10T12:08:14.022Z,3121.88
2018-11-10T12:09:14.000Z,2953.12
2018-11-10T12:10:14.048Z,2694.38
2018-11-10T12:11:13.964Z,759.38
2018-11-10T12:12:14.030Z,770.62
2018-11-10T12:13:13.955Z,838.12
2018-11-10T12:14:13.971Z,2098.12
2018-11-10T12:15:14.000Z,1389.38
2018-11-10T12:16:13.915Z,731.25
2018-11-10T12:17:13.919Z,2520.00
2018-11-10T12:18:13.906Z,2598.75
2018-11-10T12:19:13.901Z,2486.25
2018-11-10T12:20:13.923Z,1963.12
2018-11-10T12:21:13.870Z,905.62
2018-11-10T12:22:13.952Z,1102.50
2018-11-10T12:23:13.839Z,939.38
2018-11-10T12:24:14.085Z,601.88
2018-11-10T12:25:14.120Z,556.88
2018-11-10T12:26:13.861Z,1108.12
2018-11-10T12:27:13.806Z,607.50
2018-11-10T12:28:13.812Z,1642.50
2018-11-10T12:29:13.788Z,1518.75
2018-11-10T12:30:13.772Z,1254.38
2018-11-10T12:31:13.791Z,2137.50
2018-11-10T12:32:13.797Z,1918.12
2018-11-10T12:33:13.965Z,2036.25
2018-11-10T12:34:13.733Z,1935.00
2018-11-10T12:35:13.749Z,1541.25
2018-11-10T12:36:13.720Z,1203.75
2018-11-10T12:37:13.692Z,646.88
2018-11-10T12:38:13.691Z,770.62
2018-11-10T12:39:13.725Z,810.00
2018-11-10T12:40:13.691Z,1355.62
2018-11-10T12:41:13.711Z,1389.38
2018-11-10T12:42:13.652Z,1445.62
2018-11-10T12:43:13.635Z,1440.00
2018-11-10T12:44:13.635Z,1496.25
2018-11-10T12:45:13.650Z,1580.62
2018-11-10T12:46:13.691Z,1507.50
2018-11-10T12:47:13.628Z,1451.25
2018-11-10T12:48:13.608Z,652.50
2018-11-10T12:49:13.724Z,613.12
2018-11-10T12:50:13.565Z,1175.62